createdAt,value
2018-09-27T00:00:02.265Z,1018.16
2018-09-27T00:01:02.257Z,1018.15
2018-09-27T00:02:02.282Z,1018.12
2018-09-27T00:03:02.231Z,1018.09
2018-09-27T00:04:02.228Z,1018.13
2018-09-27T00:05:02.208Z,1018.09
2018-09-27T00:06:02.199Z,1018.13
2018-09-27T00:07:02.187Z,1018.14
2018-09-27T00:08:02.199Z,1018.11
2018-09-27T00:09:02.168Z,1018.12
2018-09-27T00:10:02.154Z,1018.13
2018-09-27T00:11:02.149Z,1018.10
2018-09-27T00:12:02.134Z,1018.13
2018-09-27T00:13:02.125Z,1018.16
2018-09-27T00:14:02.126Z,1018.17
2018-09-27T00:15:02.115Z,1018.17
2018-09-27T00:16:02.100Z,1018.18
2018-09-27T00:17:02.078Z,1018.14
2018-09-27T00:18:02.071Z,1018.11
2018-09-27T00:19:02.059Z,1018.12
2018-09-27T00:20:02.069Z,1018.14
2018-09-27T00:21:02.034Z,1018.08
2018-09-27T00:22:02.025Z,1018.07
2018-09-27T00:23:02.016Z,1018.12
2018-09-27T00:24:02.004Z,1018.11
2018-09-27T00:25:01.993Z,1018.18
2018-09-27T00:26:01.994Z,1018.16
2018-09-27T00:27:01.968Z,1018.18
2018-09-27T00:28:01.958Z,1018.21
2018-09-27T00:29:01.947Z,1018.19
2018-09-27T00:30:01.938Z,1018.21
2018-09-27T00:31:01.941Z,1018.13
2018-09-27T00:32:01.913Z,1018.18
2018-09-27T00:33:01.903Z,1018.15
2018-09-27T00:34:01.892Z,1018.08
2018-09-27T00:35:01.895Z,1018.04
2018-09-27T00:36:01.870Z,1018.04
2018-09-27T00:37:01.875Z,1018.07
2018-09-27T00:38:01.849Z,1018.08
2018-09-27T00:39:01.837Z,1018.05
2018-09-27T00:40:01.828Z,1018.08
2018-09-27T00:41:01.818Z,1018.15
2018-09-27T00:42:01.819Z,1018.13
2018-09-27T00:43:01.796Z,1018.11
2018-09-27T00:44:01.782Z,1018.10
2018-09-27T00:45:01.773Z,1018.09
2018-09-27T00:46:01.778Z,1018.06
2018-09-27T00:47:01.769Z,1018.00
2018-09-27T00:48:01.743Z,1018.04
2018-09-27T00:49:01.731Z,1018.00
2018-09-27T00:50:01.717Z,1018.03
2018-09-27T00:51:01.731Z,1018.01
2018-09-27T00:52:01.713Z,1018.00
2018-09-27T00:53:01.686Z,1018.00
2018-09-27T00:54:01.674Z,1017.94
2018-09-27T00:55:01.664Z,1017.95
2018-09-27T00:56:01.650Z,1017.96
2018-09-27T00:57:01.641Z,1017.96
2018-09-27T00:58:01.645Z,1017.97
2018-09-27T00:59:01.619Z,1017.90
2018-09-27T01:00:01.607Z,1017.98
2018-09-27T01:01:01.597Z,1017.95
2018-09-27T01:02:01.584Z,1017.92
2018-09-27T01:03:01.591Z,1017.91
2018-09-27T01:04:01.562Z,1017.89
2018-09-27T01:05:01.552Z,1017.92
2018-09-27T01:06:01.541Z,1017.86
2018-09-27T01:07:01.531Z,1017.86
2018-09-27T01:08:01.519Z,1017.86
2018-09-27T01:09:01.523Z,1017.83
2018-09-27T01:10:01.496Z,1017.84
2018-09-27T01:11:01.485Z,1017.84
2018-09-27T01:12:01.478Z,1017.83
2018-09-27T01:13:01.481Z,1017.81
2018-09-27T01:14:01.451Z,1017.77
2018-09-27T01:15:01.466Z,1017.82
2018-09-27T01:16:01.432Z,1017.80
2018-09-27T01:17:01.419Z,1017.85
2018-09-27T01:18:01.409Z,1017.84
2018-09-27T01:19:01.412Z,1017.85
2018-09-27T01:20:01.388Z,1017.84
2018-09-27T01:21:01.376Z,1017.83
2018-09-27T01:22:01.365Z,1017.87
2018-09-27T01:23:01.362Z,1017.86
2018-09-27T01:24:01.365Z,1017.79
2018-09-27T01:25:01.331Z,1017.78
2018-09-27T01:26:01.323Z,1017.77
2018-09-27T01:27:02.130Z,1017.74
2018-09-27T01:28:02.168Z,1017.74
2018-09-27T01:29:01.287Z,1017.71
2018-09-27T01:30:01.293Z,1017.71
2018-09-27T01:31:01.265Z,1017.73
2018-09-27T01:32:01.255Z,1017.73
2018-09-27T01:33:01.242Z,1017.76
2018-09-27T01:34:01.243Z,1017.75
2018-09-27T01:35:01.238Z,1017.79
2018-09-27T01:36:01.212Z,1017.74
2018-09-27T01:37:01.202Z,1017.72
2018-09-27T01:38:01.190Z,1017.68
2018-09-27T01:39:01.177Z,1017.64
2018-09-27T01:40:01.185Z,1017.64
2018-09-27T01:41:01.154Z,1017.64
2018-09-27T01:42:01.143Z,1017.67
2018-09-27T01:43:01.133Z,1017.64
2018-09-27T01:44:01.122Z,1017.65
2018-09-27T01:45:01.114Z,1017.65
2018-09-27T01:46:01.142Z,1017.65
2018-09-27T01:47:01.118Z,1017.61
2018-09-27T01:48:01.082Z,1017.61
2018-09-27T01:49:01.067Z,1017.63
2018-09-27T01:50:01.061Z,1017.59
2018-09-27T01:51:01.050Z,1017.60
2018-09-27T01:52:01.048Z,1017.62
2018-09-27T01:53:01.024Z,1017.58
2018-09-27T01:54:01.014Z,1017.57
2018-09-27T01:55:01.002Z,1017.52
2018-09-27T01:56:00.992Z,1017.51
2018-09-27T01:57:01.002Z,1017.50
2018-09-27T01:58:00.967Z,1017.49
2018-09-27T01:59:00.965Z,1017.48
2018-09-27T02:00:00.963Z,1017.50
2018-09-27T02:01:00.935Z,1017.53
2018-09-27T02:02:00.925Z,1017.56
2018-09-27T02:03:00.915Z,1017.55
2018-09-27T02:04:00.948Z,1017.56
2018-09-27T02:05:00.893Z,1017.56
2018-09-27T02:06:00.885Z,1017.56
2018-09-27T02:07:00.886Z,1017.55
2018-09-27T02:08:00.858Z,1017.53
2018-09-27T02:09:00.849Z,1017.50
2018-09-27T02:10:00.837Z,1017.50
2018-09-27T02:11:00.825Z,1017.51
2018-09-27T02:12:00.836Z,1017.48
2018-09-27T02:13:00.804Z,1017.50
2018-09-27T02:14:00.795Z,1017.46
2018-09-27T02:15:00.785Z,1017.48
2018-09-27T02:16:00.774Z,1017.46
2018-09-27T02:17:00.787Z,1017.44
2018-09-27T02:18:00.763Z,1017.48
2018-09-27T02:19:00.740Z,1017.45
2018-09-27T02:20:00.728Z,1017.45
2018-09-27T02:21:00.719Z,1017.44
2018-09-27T02:22:00.705Z,1017.45
2018-09-27T02:23:00.713Z,1017.45
2018-09-27T02:24:00.685Z,1017.45
2018-09-27T02:25:00.672Z,1017.40
2018-09-27T02:26:00.662Z,1017.39
2018-09-27T02:27:00.653Z,1017.38
2018-09-27T02:28:00.657Z,1017.35
2018-09-27T02:29:00.631Z,1017.36
2018-09-27T02:30:00.623Z,1017.35
2018-09-27T02:31:00.609Z,1017.33
2018-09-27T02:32:00.597Z,1017.29
2018-09-27T02:33:00.586Z,1017.28
2018-09-27T02:34:00.628Z,1017.27
2018-09-27T02:35:00.562Z,1017.30
2018-09-27T02:36:00.553Z,1017.30
2018-09-27T02:37:00.543Z,1017.29
2018-09-27T02:38:00.542Z,1017.26
2018-09-27T02:39:00.536Z,1017.30
2018-09-27T02:40:00.508Z,1017.27
2018-09-27T02:41:00.498Z,1017.27
2018-09-27T02:42:00.488Z,1017.28
2018-09-27T02:43:00.476Z,1017.27
2018-09-27T02:44:00.484Z,1017.29
2018-09-27T02:45:00.453Z,1017.31
2018-09-27T02:46:00.451Z,1017.31
2018-09-27T02:47:00.441Z,1017.30
2018-09-27T02:48:00.428Z,1017.30
2018-09-27T02:49:00.419Z,1017.28
2018-09-27T02:50:00.414Z,1017.26
2018-09-27T02:51:00.390Z,1017.26
2018-09-27T02:52:00.387Z,1017.28
2018-09-27T02:53:00.367Z,1017.28
2018-09-27T02:54:00.359Z,1017.24
2018-09-27T02:55:00.351Z,1017.23
2018-09-27T02:56:00.333Z,1017.25
2018-09-27T02:57:00.336Z,1017.25
2018-09-27T02:58:00.312Z,1017.25
2018-09-27T02:59:00.301Z,1017.26
2018-09-27T03:00:00.292Z,1017.24
2018-09-27T03:01:00.290Z,1017.22
2018-09-27T03:02:00.267Z,1017.23
2018-09-27T03:03:00.270Z,1017.23
2018-09-27T03:04:00.246Z,1017.27
2018-09-27T03:05:00.252Z,1017.30
2018-09-27T03:06:00.222Z,1017.29
2018-09-27T03:07:00.211Z,1017.22
2018-09-27T03:08:00.213Z,1017.24
2018-09-27T03:09:00.188Z,1017.27
2018-09-27T03:10:00.197Z,1017.26
2018-09-27T03:11:00.170Z,1017.23
2018-09-27T03:12:00.156Z,1017.18
2018-09-27T03:13:00.146Z,1017.23
2018-09-27T03:14:00.278Z,1017.18
2018-09-27T03:15:00.125Z,1017.21
2018-09-27T03:16:00.116Z,1017.16
2018-09-27T03:17:00.104Z,1017.21
2018-09-27T03:18:00.109Z,1017.19
2018-09-27T03:19:00.096Z,1017.19
2018-09-27T03:20:00.068Z,1017.19
2018-09-27T03:21:00.077Z,1017.15
2018-09-27T03:22:00.048Z,1017.17
2018-09-27T03:23:00.037Z,1017.14
2018-09-27T03:24:00.027Z,1017.18
2018-09-27T03:25:00.028Z,1017.16
2018-09-27T03:26:00.004Z,1017.15
2018-09-27T03:26:59.995Z,1017.15
2018-09-27T03:27:59.983Z,1017.11
2018-09-27T03:29:00.011Z,1017.13
2018-09-27T03:29:59.959Z,1017.09
2018-09-27T03:30:59.950Z,1017.07
2018-09-27T03:31:59.964Z,1017.09
2018-09-27T03:32:59.928Z,1017.06
2018-09-27T03:33:59.917Z,1017.06
2018-09-27T03:34:59.919Z,1017.08
2018-09-27T03:35:59.893Z,1017.10
2018-09-27T03:36:59.887Z,1017.03
2018-09-27T03:37:59.890Z,1017.05
2018-09-27T03:38:59.861Z,1017.04
2018-09-27T03:39:59.894Z,1017.10
2018-09-27T03:40:59.837Z,1017.02
2018-09-27T03:41:59.830Z,1017.01
2018-09-27T03:42:59.821Z,1017.01
2018-09-27T03:43:59.821Z,1017.01
2018-09-27T03:44:59.813Z,1017.01
2018-09-27T03:45:59.784Z,1017.03
2018-09-27T03:46:59.781Z,1017.02
2018-09-27T03:47:59.762Z,1017.02
2018-09-27T03:48:59.753Z,1017.02
2018-09-27T03:49:59.778Z,1017.01
2018-09-27T03:50:59.756Z,1017.01
2018-09-27T03:51:59.719Z,1016.96
2018-09-27T03:52:59.708Z,1017.00
2018-09-27T03:53:59.698Z,1016.97
2018-09-27T03:54:59.685Z,1017.00
2018-09-27T03:55:59.749Z,1016.99
2018-09-27T03:56:59.664Z,1017.00
2018-09-27T03:57:59.651Z,1016.97
2018-09-27T03:58:59.642Z,1016.95
2018-09-27T03:59:59.632Z,1016.98
2018-09-27T04:00:59.648Z,1016.98
2018-09-27T04:01:59.612Z,1016.93
2018-09-27T04:02:59.597Z,1016.92
2018-09-27T04:03:59.586Z,1016.97
2018-09-27T04:04:59.577Z,1016.91
2018-09-27T04:05:59.564Z,1016.95
2018-09-27T04:06:59.574Z,1016.90
2018-09-27T04:07:59.543Z,1016.86
2018-09-27T04:08:59.535Z,1016.94
2018-09-27T04:09:59.523Z,1016.87
2018-09-27T04:10:59.513Z,1016.83
2018-09-27T04:11:59.515Z,1016.79
2018-09-27T04:12:59.511Z,1016.80
2018-09-27T04:13:59.480Z,1016.80
2018-09-27T04:14:59.466Z,1016.80
2018-09-27T04:15:59.453Z,1016.80
2018-09-27T04:16:59.442Z,1016.77
2018-09-27T04:17:59.434Z,1016.78
2018-09-27T04:18:59.432Z,1016.78
2018-09-27T04:19:59.411Z,1016.75
2018-09-27T04:20:59.400Z,1016.72
2018-09-27T04:21:59.393Z,1016.77
2018-09-27T04:22:59.389Z,1016.74
2018-09-27T04:23:59.410Z,1016.74
2018-09-27T04:24:59.387Z,1016.77
2018-09-27T04:25:59.343Z,1016.76
2018-09-27T04:26:59.336Z,1016.75
2018-09-27T04:27:59.332Z,1016.72
2018-09-27T04:28:59.314Z,1016.76
2018-09-27T04:29:59.302Z,1016.75
2018-09-27T04:30:59.290Z,1016.76
2018-09-27T04:31:59.301Z,1016.72
2018-09-27T04:32:59.279Z,1016.72
2018-09-27T04:33:59.258Z,1016.70
2018-09-27T04:34:59.244Z,1016.69
2018-09-27T04:35:59.246Z,1016.72
2018-09-27T04:36:59.224Z,1016.69
2018-09-27T04:37:59.214Z,1016.72
2018-09-27T04:38:59.213Z,1016.75
2018-09-27T04:39:59.191Z,1016.73
2018-09-27T04:40:59.236Z,1016.71
2018-09-27T04:41:59.184Z,1016.72
2018-09-27T04:42:59.157Z,1016.73
2018-09-27T04:43:59.144Z,1016.74
2018-09-27T04:44:59.147Z,1016.78
2018-09-27T04:45:59.125Z,1016.73
2018-09-27T04:46:59.114Z,1016.76
2018-09-27T04:47:59.114Z,1016.74
2018-09-27T04:48:59.097Z,1016.74
2018-09-27T04:49:59.103Z,1016.73
2018-09-27T04:50:59.070Z,1016.75
2018-09-27T04:51:59.060Z,1016.77
2018-09-27T04:52:59.047Z,1016.76
2018-09-27T04:53:59.038Z,1016.78
2018-09-27T04:54:59.025Z,1016.79
2018-09-27T04:55:59.039Z,1016.82
2018-09-27T04:56:59.009Z,1016.77
2018-09-27T04:57:58.994Z,1016.78
2018-09-27T04:58:58.983Z,1016.74
2018-09-27T04:59:59.002Z,1016.79
2018-09-27T05:00:58.963Z,1016.77
2018-09-27T05:01:58.962Z,1016.82
2018-09-27T05:02:58.938Z,1016.82
2018-09-27T05:03:58.928Z,1016.80
2018-09-27T05:04:58.927Z,1016.82
2018-09-27T05:05:58.907Z,1016.83
2018-09-27T05:06:58.896Z,1016.79
2018-09-27T05:07:58.885Z,1016.77
2018-09-27T05:08:58.876Z,1016.78
2018-09-27T05:09:58.898Z,1016.77
2018-09-27T05:10:58.853Z,1016.77
2018-09-27T05:11:58.839Z,1016.77
2018-09-27T05:12:58.829Z,1016.75
2018-09-27T05:13:58.820Z,1016.75
2018-09-27T05:14:58.824Z,1016.77
2018-09-27T05:15:58.857Z,1016.75
2018-09-27T05:16:58.785Z,1016.72
2018-09-27T05:17:58.776Z,1016.76
2018-09-27T05:18:58.763Z,1016.75
2018-09-27T05:19:58.770Z,1016.72
2018-09-27T05:20:58.745Z,1016.74
2018-09-27T05:21:58.746Z,1016.78
2018-09-27T05:22:58.721Z,1016.74
2018-09-27T05:23:58.708Z,1016.73
2018-09-27T05:24:58.699Z,1016.73
2018-09-27T05:25:58.709Z,1016.72
2018-09-27T05:26:58.677Z,1016.72
2018-09-27T05:27:58.665Z,1016.73
2018-09-27T05:28:58.669Z,1016.71
2018-09-27T05:29:58.649Z,1016.65
2018-09-27T05:30:58.633Z,1016.65
2018-09-27T05:31:58.623Z,1016.69
2018-09-27T05:32:58.639Z,1016.67
2018-09-27T05:33:58.603Z,1016.69
2018-09-27T05:34:58.587Z,1016.65
2018-09-27T05:35:58.579Z,1016.68
2018-09-27T05:36:58.569Z,1016.68
2018-09-27T05:37:58.561Z,1016.70
2018-09-27T05:38:58.560Z,1016.68
2018-09-27T05:39:58.536Z,1016.70
2018-09-27T05:40:58.567Z,1016.70
2018-09-27T05:41:58.510Z,1016.74
2018-09-27T05:42:58.546Z,1016.70
2018-09-27T05:43:58.525Z,1016.69
2018-09-27T05:44:58.493Z,1016.72
2018-09-27T05:45:58.469Z,1016.75
2018-09-27T05:46:58.472Z,1016.73
2018-09-27T05:47:58.445Z,1016.73
2018-09-27T05:48:58.435Z,1016.71
2018-09-27T05:49:58.482Z,1016.74
2018-09-27T05:50:58.435Z,1016.72
2018-09-27T05:51:58.404Z,1016.70
2018-09-27T05:52:58.392Z,1016.67
2018-09-27T05:53:58.380Z,1016.67
2018-09-27T05:54:58.368Z,1016.65
2018-09-27T05:55:58.451Z,1016.63
2018-09-27T05:56:58.362Z,1016.67
2018-09-27T05:57:58.336Z,1016.60
2018-09-27T05:58:58.327Z,1016.62
2018-09-27T05:59:58.315Z,1016.64
2018-09-27T06:00:58.302Z,1016.63
2018-09-27T06:01:58.349Z,1016.66
2018-09-27T06:02:58.281Z,1016.65
2018-09-27T06:03:58.269Z,1016.62
2018-09-27T06:04:58.258Z,1016.71
2018-09-27T06:05:58.252Z,1016.64
2018-09-27T06:06:58.251Z,1016.64
2018-09-27T06:07:58.224Z,1016.67
2018-09-27T06:08:58.216Z,1016.65
2018-09-27T06:09:58.205Z,1016.64
2018-09-27T06:10:58.193Z,1016.67
2018-09-27T06:11:58.197Z,1016.64
2018-09-27T06:12:58.169Z,1016.63
2018-09-27T06:13:58.175Z,1016.66
2018-09-27T06:14:58.148Z,1016.68
2018-09-27T06:15:58.157Z,1016.66
2018-09-27T06:16:58.126Z,1016.64
2018-09-27T06:17:58.115Z,1016.64
2018-09-27T06:18:58.116Z,1016.67
2018-09-27T06:19:58.094Z,1016.59
2018-09-27T06:20:58.096Z,1016.60
2018-09-27T06:21:58.073Z,1016.64
2018-09-27T06:22:58.060Z,1016.66
2018-09-27T06:23:58.048Z,1016.66
2018-09-27T06:24:58.060Z,1016.64
2018-09-27T06:25:58.046Z,1016.65
2018-09-27T06:26:58.043Z,1016.67
2018-09-27T06:27:58.005Z,1016.69
2018-09-27T06:28:57.995Z,1016.64
2018-09-27T06:29:57.982Z,1016.62
2018-09-27T06:30:57.986Z,1016.60
2018-09-27T06:31:57.963Z,1016.63
2018-09-27T06:32:57.950Z,1016.59
2018-09-27T06:33:57.940Z,1016.56
2018-09-27T06:34:57.962Z,1016.61
2018-09-27T06:35:57.935Z,1016.59
2018-09-27T06:36:57.906Z,1016.58
2018-09-27T06:37:57.896Z,1016.57
2018-09-27T06:38:57.885Z,1016.56
2018-09-27T06:39:57.873Z,1016.56
2018-09-27T06:40:57.876Z,1016.59
2018-09-27T06:41:57.850Z,1016.58
2018-09-27T06:42:57.841Z,1016.59
2018-09-27T06:43:57.828Z,1016.62
2018-09-27T06:44:57.819Z,1016.61
2018-09-27T06:45:57.823Z,1016.61
2018-09-27T06:46:57.797Z,1016.66
2018-09-27T06:47:57.785Z,1016.64
2018-09-27T06:48:57.775Z,1016.62
2018-09-27T06:49:57.764Z,1016.63
2018-09-27T06:50:57.765Z,1016.64
2018-09-27T06:51:57.779Z,1016.67
2018-09-27T06:52:57.730Z,1016.64
2018-09-27T06:53:57.717Z,1016.64
2018-09-27T06:54:57.806Z,1016.68
2018-09-27T06:55:57.901Z,1016.66
2018-09-27T06:56:57.700Z,1016.64
2018-09-27T06:57:57.709Z,1016.67
2018-09-27T06:58:57.663Z,1016.69
2018-09-27T06:59:57.656Z,1016.68
2018-09-27T07:00:57.725Z,1016.69
2018-09-27T07:01:57.629Z,1016.70
2018-09-27T07:02:57.617Z,1016.71
2018-09-27T07:03:57.616Z,1016.72
2018-09-27T07:04:57.652Z,1016.65
2018-09-27T07:05:57.600Z,1016.68
2018-09-27T07:06:57.576Z,1016.69
2018-09-27T07:07:57.580Z,1016.67
2018-09-27T07:08:57.550Z,1016.64
2018-09-27T07:09:57.540Z,1016.60
2018-09-27T07:10:57.529Z,1016.58
2018-09-27T07:11:57.586Z,1016.60
2018-09-27T07:12:57.509Z,1016.56
2018-09-27T07:13:57.496Z,1016.52
2018-09-27T07:14:57.484Z,1016.54
2018-09-27T07:15:57.475Z,1016.56
2018-09-27T07:16:57.464Z,1016.59
2018-09-27T07:17:57.465Z,1016.56
2018-09-27T07:18:57.443Z,1016.59
2018-09-27T07:19:57.433Z,1016.56
2018-09-27T07:20:57.432Z,1016.60
2018-09-27T07:21:57.410Z,1016.59
2018-09-27T07:22:57.399Z,1016.61
2018-09-27T07:23:57.386Z,1016.61
2018-09-27T07:24:57.402Z,1016.62
2018-09-27T07:25:57.367Z,1016.63
2018-09-27T07:26:57.401Z,1016.59
2018-09-27T07:27:57.371Z,1016.54
2018-09-27T07:28:57.333Z,1016.57
2018-09-27T07:29:57.341Z,1016.55
2018-09-27T07:30:57.365Z,1016.55
2018-09-27T07:31:57.304Z,1016.53
2018-09-27T07:32:57.289Z,1016.55
2018-09-27T07:33:57.295Z,1016.52
2018-09-27T07:34:57.269Z,1016.46
2018-09-27T07:35:57.277Z,1016.50
2018-09-27T07:36:57.246Z,1016.45
2018-09-27T07:37:57.236Z,1016.44
2018-09-27T07:38:57.238Z,1016.50
2018-09-27T07:39:57.213Z,1016.43
2018-09-27T07:40:57.202Z,1016.46
2018-09-27T07:41:57.191Z,1016.47
2018-09-27T07:42:57.179Z,1016.43
2018-09-27T07:43:57.186Z,1016.48
2018-09-27T07:44:57.158Z,1016.46
2018-09-27T07:45:57.153Z,1016.44
2018-09-27T07:46:57.134Z,1016.42
2018-09-27T07:47:57.120Z,1016.43
2018-09-27T07:48:57.111Z,1016.44
2018-09-27T07:49:57.116Z,1016.44
2018-09-27T07:50:57.104Z,1016.46
2018-09-27T07:51:57.084Z,1016.42
2018-09-27T07:52:57.066Z,1016.43
2018-09-27T07:53:57.056Z,1016.41
2018-09-27T07:54:57.071Z,1016.39
2018-09-27T07:55:57.053Z,1016.40
2018-09-27T07:56:57.024Z,1016.44
2018-09-27T07:57:57.012Z,1016.44
2018-09-27T07:58:56.999Z,1016.41
2018-09-27T07:59:56.990Z,1016.40
2018-09-27T08:00:56.985Z,1016.35
2018-09-27T08:01:56.980Z,1016.38
2018-09-27T08:02:57.066Z,1016.31
2018-09-27T08:03:56.947Z,1016.33
2018-09-27T08:04:56.938Z,1016.39
2018-09-27T08:05:56.923Z,1016.36
2018-09-27T08:06:56.927Z,1016.35
2018-09-27T08:07:56.936Z,1016.37
2018-09-27T08:08:56.891Z,1016.37
2018-09-27T08:09:56.878Z,1016.34
2018-09-27T08:10:56.932Z,1016.37
2018-09-27T08:11:56.888Z,1016.34
2018-09-27T08:12:56.847Z,1016.35
2018-09-27T08:13:56.851Z,1016.34
2018-09-27T08:14:56.822Z,1016.37
2018-09-27T08:15:56.812Z,1016.34
2018-09-27T08:16:56.880Z,1016.35
2018-09-27T08:17:56.809Z,1016.34
2018-09-27T08:18:56.798Z,1016.32
2018-09-27T08:19:56.795Z,1016.33
2018-09-27T08:20:56.838Z,1016.26
2018-09-27T08:21:56.747Z,1016.35
2018-09-27T08:22:56.757Z,1016.35
2018-09-27T08:23:56.750Z,1016.34
2018-09-27T08:24:56.731Z,1016.34
2018-09-27T08:25:56.704Z,1016.33
2018-09-27T08:26:56.693Z,1016.34
2018-09-27T08:27:56.685Z,1016.31
2018-09-27T08:28:56.672Z,1016.28
2018-09-27T08:29:56.676Z,1016.28
2018-09-27T08:30:56.772Z,1016.30
2018-09-27T08:31:56.642Z,1016.29
2018-09-27T08:32:56.629Z,1016.32
2018-09-27T08:33:56.618Z,1016.30
2018-09-27T08:34:56.607Z,1016.28
2018-09-27T08:35:56.616Z,1016.34
2018-09-27T08:36:56.612Z,1016.28
2018-09-27T08:37:56.600Z,1016.24
2018-09-27T08:38:56.563Z,1016.22
2018-09-27T08:39:56.552Z,1016.24
2018-09-27T08:40:56.541Z,1016.24
2018-09-27T08:41:56.530Z,1016.21
2018-09-27T08:42:56.537Z,1016.18
2018-09-27T08:43:56.511Z,1016.24
2018-09-27T08:44:56.658Z,1016.19
2018-09-27T08:45:56.547Z,1016.29
2018-09-27T08:46:56.477Z,1016.24
2018-09-27T08:47:56.466Z,1016.20
2018-09-27T08:48:56.470Z,1016.20
2018-09-27T08:49:56.444Z,1016.16
2018-09-27T08:50:56.431Z,1016.16
2018-09-27T08:51:56.425Z,1016.15
2018-09-27T08:52:56.412Z,1016.15
2018-09-27T08:53:56.415Z,1016.14
2018-09-27T08:54:56.388Z,1016.13
2018-09-27T08:55:56.498Z,1016.09
2018-09-27T08:56:56.367Z,1016.12
2018-09-27T08:57:56.357Z,1016.06
2018-09-27T08:58:56.389Z,1016.06
2018-09-27T08:59:56.334Z,1016.05
2018-09-27T09:00:56.323Z,1016.05
2018-09-27T09:01:56.313Z,1016.02
2018-09-27T09:02:56.301Z,1015.97
2018-09-27T09:03:56.360Z,1015.98
2018-09-27T09:04:56.299Z,1015.97
2018-09-27T09:05:56.273Z,1016.00
2018-09-27T09:06:56.260Z,1015.97
2018-09-27T09:07:56.251Z,1015.92
2018-09-27T09:08:56.237Z,1015.94
2018-09-27T09:09:56.225Z,1015.91
2018-09-27T09:10:56.235Z,1015.92
2018-09-27T09:11:56.255Z,1015.87
2018-09-27T09:12:56.190Z,1015.91
2018-09-27T09:13:56.182Z,1015.86
2018-09-27T09:14:56.169Z,1015.88
2018-09-27T09:15:56.170Z,1015.90
2018-09-27T09:16:56.147Z,1015.85
2018-09-27T09:17:56.135Z,1015.90
2018-09-27T09:18:56.126Z,1015.87
2018-09-27T09:19:56.115Z,1015.87
2018-09-27T09:20:56.138Z,1015.83
2018-09-27T09:21:56.091Z,1015.87
2018-09-27T09:22:56.081Z,1015.86
2018-09-27T09:23:56.074Z,1015.90
2018-09-27T09:24:56.061Z,1015.84
2018-09-27T09:25:56.087Z,1015.87
2018-09-27T09:26:56.054Z,1015.85
2018-09-27T09:27:56.030Z,1015.84
2018-09-27T09:28:56.020Z,1015.82
2018-09-27T09:29:56.047Z,1015.74
2018-09-27T09:30:56.043Z,1015.78
2018-09-27T09:31:56.009Z,1015.80
2018-09-27T09:32:55.977Z,1015.76
2018-09-27T09:33:55.981Z,1015.77
2018-09-27T09:34:55.955Z,1015.69
2018-09-27T09:35:56.003Z,1015.67
2018-09-27T09:36:55.946Z,1015.66
2018-09-27T09:37:55.924Z,1015.66
2018-09-27T09:38:55.925Z,1015.67
2018-09-27T09:39:55.902Z,1015.71
2018-09-27T09:40:55.889Z,1015.65
2018-09-27T09:41:55.881Z,1015.65
2018-09-27T09:42:55.869Z,1015.62
2018-09-27T09:43:55.875Z,1015.66
2018-09-27T09:44:55.845Z,1015.65
2018-09-27T09:45:55.837Z,1015.61
2018-09-27T09:46:55.827Z,1015.62
2018-09-27T09:47:55.817Z,1015.53
2018-09-27T09:48:55.821Z,1015.50
2018-09-27T09:49:55.867Z,1015.48
2018-09-27T09:50:55.783Z,1015.48
2018-09-27T09:51:55.772Z,1015.47
2018-09-27T09:52:55.761Z,1015.46
2018-09-27T09:53:55.765Z,1015.44
2018-09-27T09:54:55.739Z,1015.47
2018-09-27T09:55:55.731Z,1015.48
2018-09-27T09:56:55.732Z,1015.46
2018-09-27T09:57:55.725Z,1015.46
2018-09-27T09:58:55.701Z,1015.48
2018-09-27T09:59:55.728Z,1015.48
2018-09-27T10:00:55.682Z,1015.46
2018-09-27T10:01:55.667Z,1015.47
2018-09-27T10:02:55.657Z,1015.44
2018-09-27T10:03:55.644Z,1015.47
2018-09-27T10:04:55.634Z,1015.42
2018-09-27T10:05:55.644Z,1015.44
2018-09-27T10:06:55.613Z,1015.37
2018-09-27T10:07:55.603Z,1015.40
2018-09-27T10:08:55.653Z,1015.36
2018-09-27T10:09:55.583Z,1015.31
2018-09-27T10:10:55.569Z,1015.28
2018-09-27T10:11:55.581Z,1015.29
2018-09-27T10:12:55.552Z,1015.30
2018-09-27T10:13:55.537Z,1015.28
2018-09-27T10:14:55.568Z,1015.29
2018-09-27T10:15:55.529Z,1015.32
2018-09-27T10:16:55.516Z,1015.24
2018-09-27T10:17:55.495Z,1015.23
2018-09-27T10:18:55.484Z,1015.18
2018-09-27T10:19:55.486Z,1015.18
2018-09-27T10:20:55.465Z,1015.15
2018-09-27T10:21:55.526Z,1015.13
2018-09-27T10:22:55.444Z,1015.09
2018-09-27T10:23:55.430Z,1015.09
2018-09-27T10:24:55.439Z,1015.08
2018-09-27T10:25:55.408Z,1015.08
2018-09-27T10:26:55.398Z,1015.02
2018-09-27T10:27:55.392Z,1015.01
2018-09-27T10:28:55.381Z,1014.97
2018-09-27T10:29:55.386Z,1014.91
2018-09-27T10:30:55.356Z,1014.92
2018-09-27T10:31:55.345Z,1014.94
2018-09-27T10:32:55.338Z,1014.94
2018-09-27T10:33:55.324Z,1014.94
2018-09-27T10:34:55.316Z,1014.95
2018-09-27T10:35:55.318Z,1014.89
2018-09-27T10:36:55.299Z,1014.82
2018-09-27T10:37:55.281Z,1014.84
2018-09-27T10:38:55.275Z,1014.82
2018-09-27T10:39:55.279Z,1014.81
2018-09-27T10:40:55.250Z,1014.80
2018-09-27T10:41:55.239Z,1014.78
2018-09-27T10:42:55.228Z,1014.75
2018-09-27T10:43:55.225Z,1014.70
2018-09-27T10:44:55.246Z,1014.77
2018-09-27T10:45:55.210Z,1014.75
2018-09-27T10:46:55.186Z,1014.76
2018-09-27T10:47:55.177Z,1014.76
2018-09-27T10:48:55.167Z,1014.75
2018-09-27T10:49:55.153Z,1014.72
2018-09-27T10:50:55.159Z,1014.72
2018-09-27T10:51:55.133Z,1014.69
2018-09-27T10:52:55.122Z,1014.72
2018-09-27T10:53:55.120Z,1014.72
2018-09-27T10:54:55.100Z,1014.73
2018-09-27T10:55:55.150Z,1014.74
2018-09-27T10:56:55.083Z,1014.76
2018-09-27T10:57:55.085Z,1014.74
2018-09-27T10:58:55.061Z,1014.74
2018-09-27T10:59:55.055Z,1014.68
2018-09-27T11:00:55.038Z,1014.73
2018-09-27T11:01:55.031Z,1014.71
2018-09-27T11:02:55.083Z,1014.72
2018-09-27T11:03:55.017Z,1014.60
2018-09-27T11:04:54.995Z,1014.62
2018-09-27T11:05:54.985Z,1014.56
2018-09-27T11:06:54.991Z,1014.55
2018-09-27T11:07:54.966Z,1014.57
2018-09-27T11:08:54.974Z,1014.54
2018-09-27T11:09:54.942Z,1014.57
2018-09-27T11:10:54.940Z,1014.53
2018-09-27T11:11:54.921Z,1014.52
2018-09-27T11:12:54.911Z,1014.49
2018-09-27T11:13:54.900Z,1014.49
2018-09-27T11:14:54.915Z,1014.45
2018-09-27T11:15:54.878Z,1014.43
2018-09-27T11:16:54.879Z,1014.44
2018-09-27T11:17:54.858Z,1014.42
2018-09-27T11:18:54.848Z,1014.37
2018-09-27T11:19:54.838Z,1014.37
2018-09-27T11:20:54.842Z,1014.32
2018-09-27T11:21:54.915Z,1014.35
2018-09-27T11:22:54.809Z,1014.33
2018-09-27T11:23:54.797Z,1014.31
2018-09-27T11:24:54.787Z,1014.26
2018-09-27T11:25:54.776Z,1014.28
2018-09-27T11:26:54.762Z,1014.23
2018-09-27T11:27:54.768Z,1014.24
2018-09-27T11:28:54.768Z,1014.18
2018-09-27T11:29:54.735Z,1014.20
2018-09-27T11:30:54.724Z,1014.14
2018-09-27T11:31:54.726Z,1014.14
2018-09-27T11:32:54.753Z,1014.09
2018-09-27T11:33:54.704Z,1014.10
2018-09-27T11:34:54.681Z,1014.14
2018-09-27T11:35:54.669Z,1014.07
2018-09-27T11:36:54.660Z,1014.10
2018-09-27T11:37:54.669Z,1014.07
2018-09-27T11:38:54.640Z,1014.06
2018-09-27T11:39:54.629Z,1014.02
2018-09-27T11:40:54.615Z,1013.98
2018-09-27T11:41:54.719Z,1013.93
2018-09-27T11:42:54.652Z,1013.86
2018-09-27T11:43:54.694Z,1013.89
2018-09-27T11:44:54.603Z,1013.90
2018-09-27T11:45:54.563Z,1013.84
2018-09-27T11:46:54.555Z,1013.84
2018-09-27T11:47:54.560Z,1013.85
2018-09-27T11:48:54.608Z,1013.82
2018-09-27T11:49:54.661Z,1013.79
2018-09-27T11:50:54.515Z,1013.76
2018-09-27T11:51:54.500Z,1013.76
2018-09-27T11:52:54.492Z,1013.71
2018-09-27T11:53:54.481Z,1013.72
2018-09-27T11:54:54.543Z,1013.71
2018-09-27T11:55:54.470Z,1013.63
2018-09-27T11:56:54.452Z,1013.67
2018-09-27T11:57:54.440Z,1013.57
2018-09-27T11:58:54.455Z,1013.55
2018-09-27T11:59:54.454Z,1013.57
2018-09-27T12:00:54.406Z,1013.50
2018-09-27T12:01:54.420Z,1013.49
2018-09-27T12:02:54.386Z,1013.43
2018-09-27T12:03:54.374Z,1013.47
2018-09-27T12:04:54.366Z,1013.39